createdAt,value
2018-12-06T00:00:22.760Z,0
2018-12-06T00:01:32.689Z,0
2018-12-06T00:02:42.464Z,0
2018-12-06T00:03:52.422Z,0
2018-12-06T00:05:02.350Z,0
2018-12-06T00:06:12.288Z,0
2018-12-06T00:07:22.229Z,0
2018-12-06T00:08:32.205Z,0
2018-12-06T00:09:42.139Z,0
2018-12-06T00:10:52.074Z,0
2018-12-06T00:12:02.001Z,0
2018-12-06T00:13:11.934Z,0
2018-12-06T00:14:21.913Z,0
2018-12-06T00:15:31.851Z,0
2018-12-06T00:16:41.779Z,0
2018-12-06T00:17:51.711Z,0
2018-12-06T00:19:01.642Z,0
2018-12-06T00:20:11.571Z,0
2018-12-06T00:21:21.496Z,0
2018-12-06T00:22:31.460Z,0
2018-12-06T00:23:41.390Z,0
2018-12-06T00:24:51.328Z,0
2018-12-06T00:26:01.307Z,0
2018-12-06T00:27:11.232Z,0
2018-12-06T00:28:21.161Z,0
2018-12-06T00:29:31.092Z,0
2018-12-06T00:30:41.026Z,0
2018-12-06T00:31:51.051Z,0
2018-12-06T00:33:00.982Z,0
2018-12-06T00:34:10.919Z,0
2018-12-06T00:35:20.851Z,0
2018-12-06T00:36:30.783Z,0
2018-12-06T00:37:40.811Z,0
2018-12-06T00:38:50.743Z,0
2018-12-06T00:40:00.677Z,0
2018-12-06T00:41:10.603Z,0
2018-12-06T00:42:20.538Z,0
2018-12-06T00:43:30.572Z,0
2018-12-06T00:44:40.503Z,0
2018-12-06T00:45:50.462Z,0
2018-12-06T00:47:00.388Z,0
2018-12-06T00:48:10.321Z,0
2018-12-06T00:49:20.355Z,0
2018-12-06T00:50:30.282Z,0
2018-12-06T00:51:40.215Z,0
2018-12-06T00:52:50.156Z,0
2018-12-06T00:54:00.088Z,0
2018-12-06T00:55:10.122Z,0
2018-12-06T00:56:20.053Z,0
2018-12-06T00:57:29.985Z,0
2018-12-06T00:58:39.912Z,0
2018-12-06T00:59:49.843Z,0
2018-12-06T01:00:59.872Z,0
2018-12-06T01:02:09.800Z,0
2018-12-06T01:03:19.791Z,0
2018-12-06T01:04:29.725Z,0
2018-12-06T01:05:39.654Z,0
2018-12-06T01:06:49.631Z,0
2018-12-06T01:07:59.567Z,0
2018-12-06T01:09:09.245Z,0
2018-12-06T01:10:19.169Z,0
2018-12-06T01:11:29.099Z,0
2018-12-06T01:12:39.077Z,0
2018-12-06T01:13:49.043Z,0
2018-12-06T01:14:58.967Z,0
2018-12-06T01:16:08.904Z,0
2018-12-06T01:17:18.833Z,0
2018-12-06T01:18:28.878Z,0
2018-12-06T01:19:38.810Z,0
2018-12-06T01:20:48.738Z,0
2018-12-06T01:21:58.667Z,0
2018-12-06T01:23:08.593Z,0
2018-12-06T01:24:18.582Z,0
2018-12-06T01:25:28.510Z,0
2018-12-06T01:26:38.435Z,0
2018-12-06T01:27:48.359Z,0
2018-12-06T01:28:58.337Z,0
2018-12-06T01:30:08.369Z,0
2018-12-06T01:31:18.303Z,0
2018-12-06T01:32:28.228Z,0
2018-12-06T01:33:38.158Z,0
2018-12-06T01:34:48.093Z,0
2018-12-06T01:35:58.122Z,0
2018-12-06T01:37:08.055Z,0
2018-12-06T01:38:17.985Z,0
2018-12-06T01:39:27.915Z,0
2018-12-06T01:40:37.847Z,0
2018-12-06T01:41:47.874Z,0
2018-12-06T01:42:57.805Z,0
2018-12-06T01:44:07.734Z,0
2018-12-06T01:45:17.665Z,0
2018-12-06T01:46:27.590Z,0
2018-12-06T01:47:37.624Z,0
2018-12-06T01:48:47.560Z,0
2018-12-06T01:49:57.490Z,0
2018-12-06T01:51:07.415Z,0
2018-12-06T01:52:17.099Z,0
2018-12-06T01:53:27.074Z,0
2018-12-06T01:54:37.001Z,0
2018-12-06T01:55:46.928Z,0
2018-12-06T01:56:56.858Z,0
2018-12-06T01:58:06.788Z,0
2018-12-06T01:59:16.873Z,0
2018-12-06T02:00:26.810Z,0
2018-12-06T02:01:36.796Z,0
2018-12-06T02:02:46.743Z,0
2018-12-06T02:03:56.675Z,0
2018-12-06T02:05:06.654Z,0
2018-12-06T02:06:16.681Z,0
2018-12-06T02:07:26.613Z,0
2018-12-06T02:08:36.546Z,0
2018-12-06T02:09:46.476Z,0
2018-12-06T02:10:56.653Z,0
2018-12-06T02:12:06.601Z,0
2018-12-06T02:13:16.526Z,0
2018-12-06T02:14:26.456Z,0
2018-12-06T02:15:36.386Z,0
2018-12-06T02:16:46.465Z,0
2018-12-06T02:17:56.394Z,0
2018-12-06T02:19:06.323Z,0
2018-12-06T02:20:16.254Z,0
2018-12-06T02:21:25.944Z,0
2018-12-06T02:22:35.931Z,0
2018-12-06T02:23:45.863Z,0
2018-12-06T02:24:55.790Z,0
2018-12-06T02:26:05.718Z,0
2018-12-06T02:27:15.655Z,0
2018-12-06T02:28:25.636Z,0
2018-12-06T02:29:35.563Z,0
2018-12-06T02:30:45.254Z,0
2018-12-06T02:31:55.190Z,0
2018-12-06T02:33:05.134Z,0
2018-12-06T02:34:15.118Z,0
2018-12-06T02:35:24.798Z,0
2018-12-06T02:36:34.729Z,0
2018-12-06T02:37:44.673Z,0
2018-12-06T02:38:54.364Z,0
2018-12-06T02:40:04.404Z,0
2018-12-06T02:41:14.116Z,0
2018-12-06T02:42:24.062Z,0
2018-12-06T02:43:34.007Z,0
2018-12-06T02:44:43.946Z,0
2018-12-06T02:45:54.146Z,0
2018-12-06T02:47:04.090Z,0
2018-12-06T02:48:14.024Z,0
2018-12-06T02:49:23.700Z,0
2018-12-06T02:50:33.642Z,0
2018-12-06T02:51:43.623Z,0
2018-12-06T02:52:53.557Z,0
2018-12-06T02:54:03.496Z,0
2018-12-06T02:55:13.424Z,0
2018-12-06T02:56:23.351Z,0
2018-12-06T02:57:33.335Z,0
2018-12-06T02:58:43.015Z,0
2018-12-06T02:59:52.956Z,0
2018-12-06T03:01:02.895Z,0
2018-12-06T03:02:12.824Z,0
2018-12-06T03:03:22.859Z,0
2018-12-06T03:04:32.797Z,0
2018-12-06T03:05:42.478Z,0
2018-12-06T03:06:52.406Z,0
2018-12-06T03:08:02.341Z,0
2018-12-06T03:09:12.384Z,0
2018-12-06T03:10:22.320Z,0
2018-12-06T03:11:32.249Z,0
2018-12-06T03:12:42.194Z,0
2018-12-06T03:13:52.141Z,0
2018-12-06T03:15:02.131Z,0
2018-12-06T03:16:12.071Z,0
2018-12-06T03:17:22.016Z,0
2018-12-06T03:18:31.945Z,0
2018-12-06T03:19:41.870Z,0
2018-12-06T03:20:51.858Z,0
2018-12-06T03:22:01.793Z,0
2018-12-06T03:23:11.726Z,0
2018-12-06T03:24:21.676Z,0
2018-12-06T03:25:31.629Z,0
2018-12-06T03:26:41.659Z,0
2018-12-06T03:27:51.602Z,0
2018-12-06T03:29:02.567Z,0
2018-12-06T03:30:12.469Z,0
2018-12-06T03:31:22.435Z,0
2018-12-06T03:32:32.444Z,0
2018-12-06T03:33:42.408Z,0
2018-12-06T03:34:52.393Z,0
2018-12-06T03:36:02.331Z,0
2018-12-06T03:37:12.271Z,0
2018-12-06T03:38:22.208Z,0
2018-12-06T03:39:32.142Z,0
2018-12-06T03:40:42.073Z,0
2018-12-06T03:41:51.754Z,0
2018-12-06T03:43:01.691Z,0
2018-12-06T03:44:11.677Z,0
2018-12-06T03:45:21.609Z,0
2018-12-06T03:46:31.543Z,0
2018-12-06T03:47:41.480Z,0
2018-12-06T03:48:51.466Z,0
2018-12-06T03:50:01.453Z,0
2018-12-06T03:51:11.399Z,0
2018-12-06T03:52:21.340Z,0
2018-12-06T03:53:31.272Z,0
2018-12-06T03:54:41.207Z,0
2018-12-06T03:55:51.277Z,0
2018-12-06T03:57:01.213Z,0
2018-12-06T03:58:11.145Z,0
2018-12-06T03:59:21.079Z,0
2018-12-06T04:00:30.794Z,0
2018-12-06T04:01:40.818Z,0
2018-12-06T04:02:50.754Z,0
2018-12-06T04:04:00.814Z,0
2018-12-06T04:05:10.750Z,0
2018-12-06T04:06:20.698Z,0
2018-12-06T04:07:30.629Z,0
2018-12-06T04:08:40.573Z,0
2018-12-06T04:09:50.498Z,0
2018-12-06T04:11:00.437Z,0
2018-12-06T04:12:10.463Z,0
2018-12-06T04:13:20.391Z,0
2018-12-06T04:14:30.331Z,0
2018-12-06T04:15:40.276Z,0
2018-12-06T04:16:50.229Z,0
2018-12-06T04:18:00.162Z,0
2018-12-06T04:19:10.189Z,0
2018-12-06T04:20:20.145Z,0
2018-12-06T04:21:30.075Z,0
2018-12-06T04:22:39.999Z,0
2018-12-06T04:23:49.930Z,0
2018-12-06T04:24:59.964Z,0
2018-12-06T04:26:09.908Z,0
2018-12-06T04:27:19.841Z,0
2018-12-06T04:28:29.787Z,0
2018-12-06T04:29:39.754Z,0
2018-12-06T04:30:49.785Z,0
2018-12-06T04:31:59.718Z,0
2018-12-06T04:33:09.664Z,0
2018-12-06T04:34:19.618Z,0
2018-12-06T04:35:29.704Z,0
2018-12-06T04:36:39.790Z,0
2018-12-06T04:37:49.751Z,0
2018-12-06T04:38:59.681Z,0
2018-12-06T04:40:09.624Z,0
2018-12-06T04:41:19.552Z,0
2018-12-06T04:42:29.547Z,0
2018-12-06T04:43:39.489Z,0
2018-12-06T04:44:49.446Z,0
2018-12-06T04:45:59.377Z,0
2018-12-06T04:47:09.335Z,0
2018-12-06T04:48:26.586Z,0
2018-12-06T04:49:36.519Z,0
2018-12-06T04:50:46.451Z,0
2018-12-06T04:51:56.387Z,0
2018-12-06T04:53:06.320Z,0
2018-12-06T04:54:16.368Z,0
2018-12-06T04:55:26.295Z,0
2018-12-06T04:56:36.249Z,0
2018-12-06T04:57:46.185Z,0
2018-12-06T04:58:56.127Z,0
2018-12-06T05:00:06.177Z,0
2018-12-06T05:01:16.137Z,0
2018-12-06T05:02:26.070Z,0
2018-12-06T05:03:36.006Z,0
2018-12-06T05:04:45.938Z,0
2018-12-06T05:05:55.972Z,0
2018-12-06T05:07:05.900Z,0
2018-12-06T05:08:15.583Z,0
2018-12-06T05:09:25.514Z,0
2018-12-06T05:10:35.446Z,0
2018-12-06T05:11:45.549Z,0
2018-12-06T05:12:55.475Z,0
2018-12-06T05:14:05.401Z,0
2018-12-06T05:15:15.336Z,0
2018-12-06T05:16:25.270Z,0
2018-12-06T05:17:35.044Z,0
2018-12-06T05:18:44.972Z,0
2018-12-06T05:19:54.899Z,0
2018-12-06T05:21:04.824Z,0
2018-12-06T05:22:14.755Z,0
2018-12-06T05:23:24.789Z,0
2018-12-06T05:24:34.724Z,0
2018-12-06T05:25:44.657Z,0
2018-12-06T05:26:54.585Z,0
2018-12-06T05:28:04.568Z,0
2018-12-06T05:29:14.611Z,0
2018-12-06T05:30:24.537Z,0
2018-12-06T05:31:34.472Z,0
2018-12-06T05:32:44.402Z,0
2018-12-06T05:33:54.437Z,0
2018-12-06T05:35:04.368Z,0
2018-12-06T05:36:14.295Z,0
2018-12-06T05:37:24.224Z,0
2018-12-06T05:38:34.156Z,0
2018-12-06T05:39:44.091Z,0
2018-12-06T05:40:54.070Z,0
2018-12-06T05:42:04.007Z,0
2018-12-06T05:43:13.932Z,0
2018-12-06T05:44:23.857Z,0
2018-12-06T05:45:33.789Z,0
2018-12-06T05:46:43.827Z,0
2018-12-06T05:47:53.753Z,0
2018-12-06T05:49:03.678Z,0
2018-12-06T05:50:13.692Z,0
2018-12-06T05:51:23.369Z,0
2018-12-06T05:52:33.344Z,0
2018-12-06T05:53:43.269Z,0
2018-12-06T05:54:53.199Z,0
2018-12-06T05:56:03.121Z,0
2018-12-06T05:57:13.048Z,0
2018-12-06T05:58:23.078Z,0
2018-12-06T05:59:33.104Z,0
2018-12-06T06:00:43.031Z,0
2018-12-06T06:01:52.965Z,0
2018-12-06T06:03:02.891Z,0
2018-12-06T06:04:12.623Z,0
2018-12-06T06:05:22.552Z,0
2018-12-06T06:06:32.478Z,0
2018-12-06T06:07:42.409Z,0
2018-12-06T06:08:52.335Z,0
2018-12-06T06:10:02.370Z,0
2018-12-06T06:11:12.297Z,0
2018-12-06T06:12:22.229Z,0
2018-12-06T06:13:32.167Z,0
2018-12-06T06:14:42.096Z,0
2018-12-06T06:15:52.130Z,0
2018-12-06T06:17:02.134Z,0
2018-12-06T06:18:12.061Z,0
2018-12-06T06:19:21.993Z,0
2018-12-06T06:20:31.919Z,0
2018-12-06T06:21:41.904Z,0
2018-12-06T06:22:51.830Z,0
2018-12-06T06:24:01.760Z,0
2018-12-06T06:25:11.703Z,0
2018-12-06T06:26:21.631Z,0
2018-12-06T06:27:33.553Z,0
2018-12-06T06:28:43.238Z,0
2018-12-06T06:29:53.162Z,0
2018-12-06T06:31:03.087Z,0
2018-12-06T06:32:13.014Z,0
2018-12-06T06:33:23.095Z,0
2018-12-06T06:34:33.025Z,0
2018-12-06T06:35:42.955Z,0
2018-12-06T06:36:52.881Z,0
2018-12-06T06:38:02.817Z,0
2018-12-06T06:39:12.797Z,0
2018-12-06T06:40:22.733Z,0
2018-12-06T06:41:32.663Z,0
2018-12-06T06:42:42.597Z,0
2018-12-06T06:43:52.527Z,0
2018-12-06T06:45:02.553Z,0
2018-12-06T06:46:12.485Z,0
2018-12-06T06:47:22.411Z,0
2018-12-06T06:48:32.372Z,0
2018-12-06T06:49:42.306Z,0
2018-12-06T06:50:52.334Z,0
2018-12-06T06:52:02.267Z,0
2018-12-06T06:53:12.211Z,0
2018-12-06T06:54:22.146Z,0
2018-12-06T06:55:32.085Z,0
2018-12-06T06:56:42.018Z,0
2018-12-06T06:57:51.949Z,0
2018-12-06T06:59:03.437Z,0
2018-12-06T07:00:13.366Z,0
2018-12-06T07:01:23.297Z,0
2018-12-06T07:02:33.384Z,0
2018-12-06T07:03:43.317Z,0
2018-12-06T07:04:53.246Z,0
2018-12-06T07:06:03.172Z,0
2018-12-06T07:07:13.103Z,0
2018-12-06T07:08:23.143Z,0
2018-12-06T07:09:33.073Z,0
2018-12-06T07:10:42.999Z,0
2018-12-06T07:11:52.932Z,0
2018-12-06T07:13:02.868Z,0
2018-12-06T07:14:12.981Z,0
2018-12-06T07:15:22.924Z,0
2018-12-06T07:16:32.857Z,0
2018-12-06T07:17:42.803Z,0
2018-12-06T07:18:52.731Z,0
2018-12-06T07:20:02.807Z,4
2018-12-06T07:21:12.733Z,4
2018-12-06T07:22:22.661Z,0
2018-12-06T07:23:32.591Z,0
2018-12-06T07:24:42.521Z,4
2018-12-06T07:25:53.719Z,0
2018-12-06T07:27:03.654Z,4
2018-12-06T07:28:13.582Z,4
2018-12-06T07:29:23.513Z,4
2018-12-06T07:30:33.440Z,8
2018-12-06T07:31:43.418Z,4
2018-12-06T07:32:53.345Z,8
2018-12-06T07:34:03.290Z,8
2018-12-06T07:35:13.222Z,12
2018-12-06T07:36:23.155Z,8
2018-12-06T07:37:33.349Z,12
2018-12-06T07:38:43.279Z,12
2018-12-06T07:39:53.266Z,12
2018-12-06T07:41:03.194Z,20
2018-12-06T07:42:13.120Z,20
2018-12-06T07:43:23.164Z,20
2018-12-06T07:44:33.104Z,24
2018-12-06T07:45:43.032Z,24
2018-12-06T07:46:52.964Z,28
2018-12-06T07:48:02.896Z,28
2018-12-06T07:49:12.932Z,28
2018-12-06T07:50:22.869Z,32
2018-12-06T07:51:32.799Z,36
2018-12-06T07:52:42.727Z,40
2018-12-06T07:53:52.679Z,44
2018-12-06T07:55:02.767Z,48
2018-12-06T07:56:12.769Z,52
2018-12-06T07:57:22.699Z,56
2018-12-06T07:58:32.677Z,64
2018-12-06T07:59:42.615Z,64
2018-12-06T08:00:52.543Z,68
2018-12-06T08:02:02.469Z,72
2018-12-06T08:03:12.400Z,80
2018-12-06T08:04:22.337Z,84
2018-12-06T08:05:32.022Z,84
2018-12-06T08:06:42.105Z,88
2018-12-06T08:07:52.035Z,96
2018-12-06T08:09:01.966Z,100
2018-12-06T08:10:11.906Z,104
2018-12-06T08:11:21.843Z,112
2018-12-06T08:12:31.674Z,116
2018-12-06T08:13:41.604Z,116
2018-12-06T08:14:51.534Z,132
2018-12-06T08:16:01.463Z,140
2018-12-06T08:17:11.390Z,152
2018-12-06T08:18:21.368Z,164
2018-12-06T08:19:31.299Z,164
2018-12-06T08:21:13.059Z,176
2018-12-06T08:22:22.995Z,184
2018-12-06T08:23:33.078Z,188
2018-12-06T08:24:43.005Z,192
2018-12-06T08:25:52.937Z,200
2018-12-06T08:27:02.869Z,204
2018-12-06T08:28:12.810Z,212
2018-12-06T08:29:22.644Z,216
2018-12-06T08:30:32.578Z,220
2018-12-06T08:31:42.507Z,220
2018-12-06T08:32:52.185Z,228
2018-12-06T08:34:08.602Z,232
2018-12-06T08:35:18.536Z,232
2018-12-06T08:36:28.464Z,240
2018-12-06T08:37:38.438Z,244
2018-12-06T08:38:48.370Z,244
2018-12-06T08:39:58.301Z,244
2018-12-06T08:41:08.329Z,248
2018-12-06T08:42:18.607Z,248
2018-12-06T08:43:28.547Z,256
2018-12-06T08:44:39.429Z,268
2018-12-06T08:45:49.358Z,280
2018-12-06T08:46:59.449Z,296
2018-12-06T08:48:09.380Z,308
2018-12-06T08:49:19.305Z,308
2018-12-06T08:50:29.235Z,304
2018-12-06T08:51:39.160Z,300
2018-12-06T08:52:49.323Z,296
2018-12-06T08:53:59.263Z,296
2018-12-06T08:55:09.190Z,300
2018-12-06T08:56:19.116Z,308
2018-12-06T08:57:29.048Z,324
2018-12-06T08:58:39.232Z,332
2018-12-06T08:59:49.167Z,328
2018-12-06T09:00:59.182Z,332
2018-12-06T09:02:09.118Z,344
2018-12-06T09:03:19.049Z,352
2018-12-06T09:04:29.144Z,356
2018-12-06T09:05:38.869Z,368
2018-12-06T09:06:48.800Z,376
2018-12-06T09:07:58.727Z,380
2018-12-06T09:09:08.662Z,388
2018-12-06T09:10:18.696Z,388
2018-12-06T09:11:28.634Z,392
2018-12-06T09:12:38.576Z,392
2018-12-06T09:13:48.519Z,404
2018-12-06T09:14:58.202Z,412
2018-12-06T09:16:08.027Z,420
2018-12-06T09:17:17.953Z,432
2018-12-06T09:18:27.891Z,440
2018-12-06T09:19:37.918Z,456
2018-12-06T09:20:47.849Z,476
2018-12-06T09:21:57.901Z,504
2018-12-06T09:23:07.833Z,520
2018-12-06T09:24:17.764Z,532
2018-12-06T09:25:28.620Z,540
2018-12-06T09:26:38.567Z,556
2018-12-06T09:27:48.672Z,572
2018-12-06T09:28:58.604Z,552
2018-12-06T09:30:08.531Z,528
2018-12-06T09:31:18.467Z,524
2018-12-06T09:32:28.400Z,520
2018-12-06T09:33:38.444Z,520
2018-12-06T09:34:48.378Z,512
2018-12-06T09:35:58.311Z,496
2018-12-06T09:37:08.265Z,484
2018-12-06T09:38:17.973Z,468
2018-12-06T09:39:27.961Z,492
2018-12-06T09:40:37.890Z,532
2018-12-06T09:41:47.826Z,524
2018-12-06T09:42:57.755Z,500
2018-12-06T09:44:07.685Z,532
2018-12-06T09:45:17.675Z,560
2018-12-06T09:46:27.702Z,560
2018-12-06T09:47:37.636Z,544
2018-12-06T09:48:47.569Z,544
2018-12-06T09:49:57.499Z,564
2018-12-06T09:51:07.651Z,576
2018-12-06T09:52:17.593Z,576
2018-12-06T09:53:27.521Z,572
2018-12-06T09:54:37.461Z,560
2018-12-06T09:55:47.389Z,548
2018-12-06T09:56:57.472Z,544
2018-12-06T09:58:07.404Z,552
2018-12-06T09:59:17.339Z,564
2018-12-06T10:00:27.273Z,588
2018-12-06T10:01:37.207Z,608
2018-12-06T10:02:47.286Z,608
2018-12-06T10:03:57.221Z,608
2018-12-06T10:05:07.161Z,596
2018-12-06T10:06:17.091Z,592
2018-12-06T10:07:27.028Z,588
2018-12-06T10:08:37.109Z,592
2018-12-06T10:09:47.042Z,596
2018-12-06T10:10:56.967Z,600
2018-12-06T10:12:06.896Z,600
2018-12-06T10:13:16.826Z,604
2018-12-06T10:14:27.001Z,620
2018-12-06T10:15:36.936Z,628
2018-12-06T10:16:46.869Z,624
2018-12-06T10:17:56.806Z,632
2018-12-06T10:19:06.742Z,648
2018-12-06T10:20:16.824Z,648
2018-12-06T10:21:26.752Z,644
2018-12-06T10:22:36.762Z,644
2018-12-06T10:23:46.760Z,652
2018-12-06T10:24:56.702Z,648
2018-12-06T10:26:06.784Z,648
2018-12-06T10:27:16.718Z,656
2018-12-06T10:28:26.654Z,636
2018-12-06T10:29:36.589Z,620
2018-12-06T10:30:46.522Z,624
2018-12-06T10:31:56.625Z,644
2018-12-06T10:33:06.560Z,676
2018-12-06T10:34:16.489Z,704
2018-12-06T10:35:26.424Z,716
2018-12-06T10:36:36.355Z,700
2018-12-06T10:37:46.439Z,676
2018-12-06T10:38:56.132Z,664
2018-12-06T10:40:06.065Z,672
2018-12-06T10:41:16.012Z,688
2018-12-06T10:42:25.941Z,664
2018-12-06T10:43:35.873Z,644
2018-12-06T10:44:45.810Z,628
2018-12-06T10:45:55.733Z,608
2018-12-06T10:47:05.474Z,580
2018-12-06T10:48:15.407Z,564
2018-12-06T10:49:25.441Z,540
2018-12-06T10:50:35.371Z,524
2018-12-06T10:51:45.301Z,516
2018-12-06T10:52:55.228Z,536
2018-12-06T10:54:05.155Z,540
2018-12-06T10:55:15.154Z,548
2018-12-06T10:56:25.098Z,560
2018-12-06T10:57:35.026Z,568
2018-12-06T10:58:44.953Z,564
2018-12-06T10:59:54.877Z,564
2018-12-06T11:01:05.057Z,560
2018-12-06T11:02:14.991Z,572
2018-12-06T11:03:24.920Z,592
2018-12-06T11:04:34.865Z,612
2018-12-06T11:05:44.793Z,640
2018-12-06T11:06:54.920Z,676
2018-12-06T11:08:04.863Z,684
2018-12-06T11:09:14.795Z,668
2018-12-06T11:10:24.739Z,656
2018-12-06T11:11:34.677Z,652
2018-12-06T11:12:44.855Z,668
2018-12-06T11:13:54.804Z,696
2018-12-06T11:15:04.740Z,704
2018-12-06T11:16:14.671Z,720
2018-12-06T11:17:24.605Z,724
2018-12-06T11:18:34.543Z,752
2018-12-06T11:19:44.475Z,792
2018-12-06T11:20:54.153Z,788
2018-12-06T11:22:04.082Z,780
2018-12-06T11:23:14.026Z,776
2018-12-06T11:24:23.972Z,800
2018-12-06T11:25:33.900Z,808
2018-12-06T11:26:43.840Z,816
2018-12-06T11:27:53.523Z,840
2018-12-06T11:29:03.458Z,852
2018-12-06T11:30:13.491Z,832
2018-12-06T11:31:23.422Z,804
2018-12-06T11:32:33.353Z,800
2018-12-06T11:33:43.284Z,804
2018-12-06T11:34:53.212Z,804
2018-12-06T11:36:03.145Z,784
2018-12-06T11:37:13.072Z,780
2018-12-06T11:38:23.000Z,768
2018-12-06T11:39:32.936Z,744
2018-12-06T11:40:42.862Z,736
2018-12-06T11:41:52.790Z,720
2018-12-06T11:43:02.716Z,688
2018-12-06T11:44:12.643Z,664
2018-12-06T11:45:22.581Z,636
2018-12-06T11:46:32.506Z,616
2018-12-06T11:47:42.537Z,604
2018-12-06T11:48:52.471Z,596
2018-12-06T11:50:02.409Z,604
2018-12-06T11:51:12.340Z,628
2018-12-06T11:52:22.286Z,648
2018-12-06T11:53:32.216Z,656
2018-12-06T11:54:42.140Z,664
2018-12-06T11:55:52.075Z,680
2018-12-06T11:57:02.093Z,688
2018-12-06T11:58:18.575Z,676
2018-12-06T11:59:28.604Z,676
2018-12-06T12:00:38.589Z,664
2018-12-06T12:01:48.263Z,648
2018-12-06T12:02:58.190Z,636
2018-12-06T12:04:08.117Z,624
2018-12-06T12:05:18.045Z,628
2018-12-06T12:06:27.973Z,648
2018-12-06T12:07:37.920Z,664
2018-12-06T12:08:47.850Z,676
2018-12-06T12:09:57.791Z,692
2018-12-06T12:11:07.822Z,708
2018-12-06T12:12:17.763Z,716
2018-12-06T12:13:27.690Z,736
2018-12-06T12:14:37.624Z,760
2018-12-06T12:15:47.565Z,784
2018-12-06T12:16:57.597Z,788
2018-12-06T12:18:07.539Z,784
2018-12-06T12:19:17.471Z,772
2018-12-06T12:20:27.407Z,744
2018-12-06T12:21:37.350Z,724
2018-12-06T12:22:47.186Z,712
2018-12-06T12:23:57.115Z,704
2018-12-06T12:25:07.047Z,692
2018-12-06T12:26:16.980Z,676
2018-12-06T12:27:26.925Z,656
2018-12-06T12:28:37.012Z,636
2018-12-06T12:29:46.963Z,616
2018-12-06T12:30:56.892Z,600
2018-12-06T12:32:06.820Z,588
2018-12-06T12:33:16.757Z,580
2018-12-06T12:34:26.691Z,576
2018-12-06T12:35:36.680Z,568
2018-12-06T12:36:46.620Z,548
2018-12-06T12:37:56.559Z,524
2018-12-06T12:39:06.242Z,492
2018-12-06T12:40:16.431Z,476
2018-12-06T12:41:26.364Z,464
2018-12-06T12:42:36.299Z,452
2018-12-06T12:43:46.225Z,432
2018-12-06T12:44:56.165Z,432
2018-12-06T12:46:06.149Z,432
2018-12-06T12:47:16.076Z,432
2018-12-06T12:48:26.027Z,432
2018-12-06T12:49:35.958Z,432
2018-12-06T12:50:45.894Z,428
2018-12-06T12:51:55.817Z,436
2018-12-06T12:53:05.750Z,436
2018-12-06T12:54:15.687Z,428
2018-12-06T12:55:25.620Z,420
2018-12-06T12:56:35.548Z,408
2018-12-06T12:57:45.579Z,396
2018-12-06T12:58:55.519Z,384
2018-12-06T13:00:05.459Z,372
2018-12-06T13:01:15.390Z,352
2018-12-06T13:02:25.320Z,328
2018-12-06T13:03:35.353Z,300
2018-12-06T13:04:45.277Z,284
2018-12-06T13:05:55.211Z,276
2018-12-06T13:07:05.158Z,256
2018-12-06T13:08:15.131Z,240
2018-12-06T13:09:25.284Z,220
2018-12-06T13:10:35.216Z,204
2018-12-06T13:11:45.163Z,196
2018-12-06T13:12:55.148Z,188
2018-12-06T13:14:05.080Z,180
2018-12-06T13:15:15.144Z,168
2018-12-06T13:16:25.082Z,160
2018-12-06T13:17:35.009Z,156
2018-12-06T13:18:44.939Z,152
2018-12-06T13:19:54.875Z,152
2018-12-06T13:21:04.962Z,148
2018-12-06T13:22:14.655Z,144
2018-12-06T13:23:24.593Z,144
2018-12-06T13:24:34.574Z,144
2018-12-06T13:25:44.522Z,140
2018-12-06T13:26:54.582Z,140
2018-12-06T13:28:04.512Z,148
2018-12-06T13:29:14.443Z,148
2018-12-06T13:30:24.380Z,144
2018-12-06T13:31:34.310Z,144
2018-12-06T13:32:44.339Z,144
2018-12-06T13:33:54.267Z,140
2018-12-06T13:35:04.199Z,140
2018-12-06T13:36:14.135Z,136
2018-12-06T13:37:24.061Z,136
2018-12-06T13:38:33.991Z,132
2018-12-06T13:39:43.923Z,128
2018-12-06T13:40:53.856Z,120
2018-12-06T13:42:03.788Z,120
2018-12-06T13:43:13.476Z,116
2018-12-06T13:44:23.554Z,108
2018-12-06T13:45:33.494Z,108
2018-12-06T13:46:43.427Z,104
2018-12-06T13:47:53.362Z,96
2018-12-06T13:49:03.295Z,92
2018-12-06T13:50:13.329Z,88
2018-12-06T13:51:23.257Z,88
2018-12-06T13:52:33.190Z,80
2018-12-06T13:53:43.120Z,76
2018-12-06T13:54:53.056Z,72
2018-12-06T13:56:02.987Z,72
2018-12-06T13:57:12.972Z,68
2018-12-06T13:58:22.905Z,64
2018-12-06T13:59:32.839Z,64
2018-12-06T14:00:43.468Z,64
2018-12-06T14:01:53.918Z,64
2018-12-06T14:03:03.862Z,60
2018-12-06T14:04:13.800Z,56
2018-12-06T14:05:23.732Z,56
2018-12-06T14:06:33.412Z,52
2018-12-06T14:07:43.492Z,48
2018-12-06T14:08:53.429Z,48
2018-12-06T14:10:03.371Z,48
2018-12-06T14:11:13.082Z,48
2018-12-06T14:12:23.024Z,44
2018-12-06T14:13:32.977Z,40
2018-12-06T14:14:42.906Z,40
2018-12-06T14:15:52.835Z,36
2018-12-06T14:17:02.517Z,32
2018-12-06T14:18:12.452Z,32
2018-12-06T14:19:22.382Z,32
2018-12-06T14:20:32.308Z,28
2018-12-06T14:21:42.238Z,28
2018-12-06T14:22:52.172Z,24
2018-12-06T14:24:01.856Z,20
2018-12-06T14:25:11.891Z,20
2018-12-06T14:26:21.821Z,16
2018-12-06T14:27:31.770Z,16
2018-12-06T14:28:41.698Z,16
2018-12-06T14:29:51.632Z,12
2018-12-06T14:31:01.560Z,12
2018-12-06T14:32:11.489Z,12
2018-12-06T14:33:21.427Z,12
2018-12-06T14:34:31.385Z,8
2018-12-06T14:35:41.399Z,8
2018-12-06T14:37:04.257Z,8
2018-12-06T14:38:14.185Z,4
2018-12-06T14:39:24.111Z,8
2018-12-06T14:40:34.045Z,4
2018-12-06T14:41:44.024Z,4
2018-12-06T14:42:54.052Z,4
2018-12-06T14:44:03.983Z,0
2018-12-06T14:45:14.024Z,4
2018-12-06T14:46:23.960Z,4
2018-12-06T14:47:33.991Z,4
2018-12-06T14:48:43.920Z,0
2018-12-06T14:49:53.857Z,0
2018-12-06T14:51:03.801Z,0
2018-12-06T14:52:13.800Z,0
2018-12-06T14:53:23.852Z,0
2018-12-06T14:54:33.789Z,0
2018-12-06T14:55:43.723Z,0
2018-12-06T14:56:53.654Z,0
2018-12-06T14:58:03.597Z,0
2018-12-06T14:59:13.642Z,0
2018-12-06T15:00:23.576Z,0
2018-12-06T15:01:33.533Z,0
2018-12-06T15:02:43.465Z,0
2018-12-06T15:03:53.392Z,0
2018-12-06T15:05:03.522Z,0
2018-12-06T15:06:13.454Z,0
2018-12-06T15:07:23.393Z,0
2018-12-06T15:08:33.345Z,0
2018-12-06T15:09:43.274Z,0
2018-12-06T15:10:53.251Z,0
2018-12-06T15:12:03.294Z,0
2018-12-06T15:13:13.237Z,0
2018-12-06T15:14:23.175Z,0
2018-12-06T15:15:33.106Z,0
2018-12-06T15:16:43.135Z,0
2018-12-06T15:17:53.067Z,0
2018-12-06T15:19:02.995Z,0
2018-12-06T15:20:12.930Z,0
2018-12-06T15:21:22.859Z,0
2018-12-06T15:22:32.950Z,0
2018-12-06T15:23:42.884Z,0
2018-12-06T15:24:52.813Z,0
2018-12-06T15:26:02.498Z,0
2018-12-06T15:27:12.442Z,0
2018-12-06T15:28:22.533Z,0
2018-12-06T15:29:32.461Z,0
2018-12-06T15:30:42.389Z,0
2018-12-06T15:31:52.330Z,0
2018-12-06T15:33:02.327Z,0
2018-12-06T15:34:12.318Z,0
2018-12-06T15:35:23.032Z,0
2018-12-06T15:36:32.966Z,0
2018-12-06T15:37:42.642Z,0
2018-12-06T15:38:52.577Z,0
2018-12-06T15:40:02.714Z,0
2018-12-06T15:41:12.651Z,0
2018-12-06T15:42:22.582Z,0
2018-12-06T15:43:32.512Z,0
2018-12-06T15:44:42.444Z,0
2018-12-06T15:45:52.423Z,0
2018-12-06T15:47:02.353Z,0
2018-12-06T15:48:12.284Z,0
2018-12-06T15:49:22.211Z,0
2018-12-06T15:50:32.154Z,0
2018-12-06T15:51:42.132Z,0
2018-12-06T15:52:52.066Z,0
2018-12-06T15:54:02.002Z,0
2018-12-06T15:55:11.935Z,0
2018-12-06T15:56:21.867Z,0
2018-12-06T15:57:31.896Z,0
2018-12-06T15:58:41.830Z,0
2018-12-06T15:59:51.763Z,0
2018-12-06T16:01:01.711Z,0
2018-12-06T16:02:11.648Z,0
2018-12-06T16:03:21.708Z,0
2018-12-06T16:04:31.641Z,0
2018-12-06T16:05:41.571Z,0
2018-12-06T16:06:51.564Z,0
2018-12-06T16:08:01.506Z,0
2018-12-06T16:09:11.484Z,0
2018-12-06T16:10:21.424Z,0
2018-12-06T16:11:45.992Z,0
2018-12-06T16:12:55.934Z,0
2018-12-06T16:14:05.912Z,0
2018-12-06T16:15:15.841Z,0
2018-12-06T16:16:25.775Z,0
2018-12-06T16:17:35.716Z,0
2018-12-06T16:18:45.643Z,0
2018-12-06T16:19:55.621Z,0
2018-12-06T16:21:05.562Z,0
2018-12-06T16:22:15.492Z,0
2018-12-06T16:23:25.421Z,0
2018-12-06T16:24:35.359Z,0
2018-12-06T16:25:45.393Z,0
2018-12-06T16:26:55.324Z,0
2018-12-06T16:28:05.263Z,0
2018-12-06T16:29:15.210Z,0
2018-12-06T16:30:25.153Z,0
2018-12-06T16:31:35.183Z,0
2018-12-06T16:32:45.111Z,0
2018-12-06T16:33:54.793Z,0
2018-12-06T16:35:04.722Z,0
2018-12-06T16:36:14.656Z,0
2018-12-06T16:37:24.687Z,0
2018-12-06T16:38:34.619Z,0
2018-12-06T16:39:44.556Z,0
2018-12-06T16:40:54.481Z,0
2018-12-06T16:42:04.154Z,0
2018-12-06T16:43:14.182Z,0
2018-12-06T16:44:24.108Z,0
2018-12-06T16:45:34.041Z,0
2018-12-06T16:46:43.975Z,0
2018-12-06T16:47:55.467Z,0